createdAt,value
2022-09-23T00:00:33.654Z,4.75
2022-09-23T00:01:32.882Z,4.66
2022-09-23T00:02:30.287Z,5.07
2022-09-23T00:03:28.932Z,4.99
2022-09-23T00:04:27.441Z,4.87
2022-09-23T00:05:24.773Z,4.72
2022-09-23T00:06:23.280Z,5.18
2022-09-23T00:07:21.652Z,5.41
2022-09-23T00:08:18.979Z,5.02
2022-09-23T00:09:16.277Z,5.04
2022-09-23T00:10:13.573Z,5.41
2022-09-23T00:11:13.401Z,5.00
2022-09-23T00:12:10.729Z,5.52
2022-09-23T00:13:08.545Z,5.35
2022-09-23T00:14:06.123Z,5.52
2022-09-23T00:15:03.935Z,5.53
2022-09-23T00:16:06.926Z,5.54
2022-09-23T00:17:04.334Z,5.61
2022-09-23T00:18:01.700Z,5.24
2022-09-23T00:18:59.117Z,5.65
2022-09-23T00:19:56.486Z,5.44
2022-09-23T00:20:54.004Z,5.15
2022-09-23T00:21:51.298Z,5.35
2022-09-23T00:22:48.651Z,5.63
2022-09-23T00:23:46.499Z,5.35
2022-09-23T00:24:44.423Z,5.59
2022-09-23T00:25:41.727Z,5.32
2022-09-23T00:26:39.145Z,5.91
2022-09-23T00:27:36.766Z,5.91
2022-09-23T00:28:35.112Z,5.17
2022-09-23T00:29:32.459Z,5.46
2022-09-23T00:30:29.869Z,5.71
2022-09-23T00:31:27.511Z,5.35
2022-09-23T00:32:24.978Z,5.72
2022-09-23T00:33:22.395Z,5.83
2022-09-23T00:34:19.731Z,6.04
2022-09-23T00:35:17.415Z,5.70
2022-09-23T00:36:16.285Z,5.55
2022-09-23T00:37:14.707Z,5.87
2022-09-23T00:38:12.646Z,5.75
2022-09-23T00:39:10.192Z,5.65
2022-09-23T00:40:08.754Z,5.19
2022-09-23T00:41:06.530Z,5.75
2022-09-23T00:42:04.012Z,5.61
2022-09-23T00:43:02.043Z,5.30
2022-09-23T00:44:00.519Z,5.59
2022-09-23T00:44:58.896Z,5.98
2022-09-23T00:45:56.248Z,5.72
2022-09-23T00:46:53.656Z,5.51
2022-09-23T00:47:57.660Z,5.55
2022-09-23T00:49:15.254Z,5.84
2022-09-23T00:50:30.780Z,6.12
2022-09-23T00:51:33.365Z,5.90
2022-09-23T00:52:32.231Z,5.82
2022-09-23T00:53:29.604Z,6.21
2022-09-23T00:54:27.885Z,6.48
2022-09-23T00:55:42.170Z,6.29
2022-09-23T00:56:40.583Z,6.21
2022-09-23T00:57:39.903Z,6.06
2022-09-23T00:58:40.683Z,6.36
2022-09-23T00:59:38.256Z,6.47
2022-09-23T01:00:35.720Z,6.93
2022-09-23T01:01:33.114Z,6.57
2022-09-23T01:02:31.607Z,6.83
2022-09-23T01:03:29.262Z,6.50
2022-09-23T01:04:28.673Z,6.72
2022-09-23T01:05:26.517Z,6.39
2022-09-23T01:06:23.859Z,6.23
2022-09-23T01:07:21.887Z,6.06
2022-09-23T01:08:20.900Z,6.26
2022-09-23T01:09:18.765Z,6.43
2022-09-23T01:10:18.577Z,6.28
2022-09-23T01:11:36.165Z,6.25
2022-09-23T01:12:33.426Z,6.36
2022-09-23T01:13:42.736Z,6.71
2022-09-23T01:14:53.529Z,6.10
2022-09-23T01:16:01.928Z,6.72
2022-09-23T01:17:05.548Z,6.14
2022-09-23T01:18:08.862Z,6.25
2022-09-23T01:19:34.992Z,6.65
2022-09-23T01:20:42.052Z,6.01
2022-09-23T01:21:58.255Z,6.81
2022-09-23T01:23:07.649Z,6.74
2022-09-23T01:24:10.732Z,6.83
2022-09-23T01:25:10.812Z,6.48
2022-09-23T01:26:22.113Z,7.04
2022-09-23T01:27:34.530Z,6.83
2022-09-23T01:28:33.359Z,6.37
2022-09-23T01:29:31.060Z,6.90
2022-09-23T01:30:41.838Z,6.42
2022-09-23T01:32:11.490Z,6.93
2022-09-23T01:33:11.438Z,6.78
2022-09-23T01:34:14.056Z,6.62
2022-09-23T01:35:39.143Z,6.66
2022-09-23T01:36:54.441Z,6.34
2022-09-23T01:38:10.160Z,6.98
2022-09-23T01:39:15.958Z,6.64
2022-09-23T01:40:16.064Z,6.65
2022-09-23T01:41:19.488Z,6.92
2022-09-23T01:42:25.708Z,6.67
2022-09-23T01:43:35.151Z,7.24
2022-09-23T01:44:33.522Z,6.81
2022-09-23T01:45:38.134Z,6.33
2022-09-23T01:46:42.612Z,7.05
2022-09-23T01:47:44.216Z,6.83
2022-09-23T01:48:56.262Z,6.65
2022-09-23T01:49:58.873Z,6.68
2022-09-23T01:50:59.660Z,7.06
2022-09-23T01:52:06.377Z,7.18
2022-09-23T01:53:12.464Z,6.91
2022-09-23T01:54:19.430Z,6.86
2022-09-23T01:55:23.343Z,6.70
2022-09-23T01:56:24.316Z,6.67
2022-09-23T01:57:28.766Z,7.09
2022-09-23T01:58:41.927Z,6.88
2022-09-23T01:59:50.293Z,6.55
2022-09-23T02:00:54.196Z,6.24
2022-09-23T02:02:01.154Z,6.28
2022-09-23T02:03:04.933Z,6.57
2022-09-23T02:04:22.436Z,6.11
2022-09-23T02:05:28.497Z,6.43
2022-09-23T02:06:31.204Z,6.65
2022-09-23T02:07:35.514Z,6.50
2022-09-23T02:08:44.690Z,6.48
2022-09-23T02:09:45.466Z,6.51
2022-09-23T02:10:57.401Z,6.66
2022-09-23T02:12:01.028Z,6.60
2022-09-23T02:13:05.352Z,6.15
2022-09-23T02:14:02.663Z,6.20
2022-09-23T02:15:05.309Z,6.48
2022-09-23T02:16:08.711Z,6.61
2022-09-23T02:17:10.663Z,6.79
2022-09-23T02:18:13.451Z,6.49
2022-09-23T02:19:19.558Z,6.38
2022-09-23T02:20:21.025Z,6.63
2022-09-23T02:21:20.443Z,6.80
2022-09-23T02:22:30.845Z,6.90
2022-09-23T02:23:42.512Z,7.34
2022-09-23T02:24:40.195Z,6.78
2022-09-23T02:25:52.536Z,7.02
2022-09-23T02:26:52.650Z,6.62
2022-09-23T02:27:57.143Z,6.70
2022-09-23T02:28:54.473Z,6.76
2022-09-23T02:29:54.715Z,6.91
2022-09-23T02:31:00.958Z,6.69
2022-09-23T02:31:58.384Z,7.05
2022-09-23T02:32:55.706Z,6.56
2022-09-23T02:33:58.437Z,6.25
2022-09-23T02:34:55.717Z,6.65
2022-09-23T02:36:06.633Z,6.70
2022-09-23T02:37:16.366Z,6.77
2022-09-23T02:38:22.494Z,6.97
2022-09-23T02:39:23.614Z,7.05
2022-09-23T02:40:29.107Z,7.41
2022-09-23T02:41:26.782Z,6.62
2022-09-23T02:42:31.220Z,6.63
2022-09-23T02:43:36.204Z,7.30
2022-09-23T02:44:34.096Z,7.09
2022-09-23T02:45:31.741Z,6.66
2022-09-23T02:46:32.766Z,6.95
2022-09-23T02:47:34.420Z,6.93
2022-09-23T02:48:41.419Z,6.92
2022-09-23T02:49:39.059Z,6.61
2022-09-23T02:50:37.631Z,6.66
2022-09-23T02:51:38.192Z,6.99
2022-09-23T02:52:38.048Z,7.05
2022-09-23T02:53:35.498Z,7.62
2022-09-23T02:54:33.726Z,7.13
2022-09-23T02:55:32.403Z,7.21
2022-09-23T02:56:29.838Z,7.25
2022-09-23T02:57:27.294Z,7.08
2022-09-23T02:58:24.735Z,7.18
2022-09-23T02:59:23.621Z,6.81
2022-09-23T03:00:21.047Z,7.13
2022-09-23T03:01:37.426Z,7.28
2022-09-23T03:02:34.817Z,7.23
2022-09-23T03:03:34.930Z,7.29
2022-09-23T03:04:57.043Z,6.94
2022-09-23T03:05:57.960Z,7.12
2022-09-23T03:07:08.077Z,7.10
2022-09-23T03:08:15.122Z,7.24
2022-09-23T03:09:20.016Z,7.52
2022-09-23T03:10:19.436Z,6.81
2022-09-23T03:11:17.658Z,7.62
2022-09-23T03:12:21.686Z,7.47
2022-09-23T03:13:34.280Z,8.02
2022-09-23T03:14:50.012Z,7.84
2022-09-23T03:16:02.394Z,7.92
2022-09-23T03:17:07.044Z,7.41
2022-09-23T03:18:26.088Z,7.91
2022-09-23T03:19:33.959Z,7.50
2022-09-23T03:20:34.741Z,8.37
2022-09-23T03:21:37.161Z,8.00
2022-09-23T03:22:40.211Z,7.72
2022-09-23T03:23:41.034Z,7.92
2022-09-23T03:24:40.243Z,7.63
2022-09-23T03:25:40.179Z,8.55
2022-09-23T03:26:40.615Z,8.29
2022-09-23T03:27:42.439Z,8.25
2022-09-23T03:28:43.724Z,9.00
2022-09-23T03:29:47.183Z,8.63
2022-09-23T03:30:45.109Z,8.93
2022-09-23T03:31:43.462Z,8.70
2022-09-23T03:32:46.252Z,8.46
2022-09-23T03:33:48.294Z,8.86
2022-09-23T03:34:49.051Z,8.42
2022-09-23T03:36:10.731Z,8.82
2022-09-23T03:37:15.439Z,9.17
2022-09-23T03:38:16.891Z,8.82
2022-09-23T03:39:21.769Z,8.54
2022-09-23T03:40:26.424Z,7.89
2022-09-23T03:41:30.790Z,9.39
2022-09-23T03:42:30.821Z,8.81
2022-09-23T03:43:29.965Z,8.64
2022-09-23T03:44:29.345Z,8.66
2022-09-23T03:45:30.981Z,8.56
2022-09-23T03:46:30.058Z,8.66
2022-09-23T03:47:29.022Z,9.78
2022-09-23T03:48:26.444Z,9.91
2022-09-23T03:49:27.386Z,9.63
2022-09-23T03:50:25.469Z,9.76
2022-09-23T03:51:24.049Z,9.85
2022-09-23T03:52:22.541Z,9.68
2022-09-23T03:53:21.044Z,9.60
2022-09-23T03:54:19.719Z,10.00
2022-09-23T03:55:19.247Z,9.87
2022-09-23T03:56:16.902Z,10.12
2022-09-23T03:57:14.247Z,9.89
2022-09-23T03:58:11.538Z,9.92
2022-09-23T03:59:08.968Z,10.64
2022-09-23T04:00:07.429Z,10.71
2022-09-23T04:01:05.930Z,11.78
2022-09-23T04:02:04.654Z,11.12
2022-09-23T04:03:02.060Z,10.68
2022-09-23T04:04:00.136Z,11.44
2022-09-23T04:04:57.496Z,11.95
2022-09-23T04:05:54.983Z,11.57
2022-09-23T04:06:52.309Z,12.27
2022-09-23T04:07:51.098Z,12.70
2022-09-23T04:08:48.673Z,12.96
2022-09-23T04:09:46.005Z,10.94
2022-09-23T04:10:43.344Z,10.84
2022-09-23T04:11:40.690Z,11.05
2022-09-23T04:12:38.228Z,11.55
2022-09-23T04:13:35.584Z,10.39
2022-09-23T04:14:33.050Z,9.94
2022-09-23T04:15:30.408Z,9.78
2022-09-23T04:16:27.989Z,9.74
2022-09-23T04:17:25.308Z,9.62
2022-09-23T04:18:22.655Z,10.47
2022-09-23T04:19:20.118Z,10.27
2022-09-23T04:20:18.992Z,10.55
2022-09-23T04:21:16.326Z,10.10
2022-09-23T04:22:13.837Z,10.43
2022-09-23T04:23:11.144Z,10.06
2022-09-23T04:24:08.683Z,9.10
2022-09-23T04:25:06.363Z,9.27
2022-09-23T04:26:04.663Z,8.62
2022-09-23T04:27:02.440Z,9.40
2022-09-23T04:27:59.776Z,9.22
2022-09-23T04:28:57.156Z,8.24
2022-09-23T04:29:54.521Z,8.73
2022-09-23T04:30:51.844Z,9.52
2022-09-23T04:31:49.464Z,8.79
2022-09-23T04:32:46.870Z,8.60
2022-09-23T04:33:44.180Z,8.75
2022-09-23T04:34:41.476Z,8.38
2022-09-23T04:35:40.395Z,8.32
2022-09-23T04:36:38.007Z,8.14
2022-09-23T04:37:36.056Z,8.64
2022-09-23T04:38:33.483Z,8.90
2022-09-23T04:39:30.960Z,8.18
2022-09-23T04:40:28.349Z,8.35
2022-09-23T04:41:25.713Z,8.17
2022-09-23T04:42:23.199Z,8.35
2022-09-23T04:43:22.921Z,8.67
2022-09-23T04:44:21.282Z,8.29
2022-09-23T04:45:18.639Z,8.48
2022-09-23T04:46:16.189Z,8.64
2022-09-23T04:47:13.613Z,8.33
2022-09-23T04:48:13.967Z,8.61
2022-09-23T04:49:12.648Z,8.71
2022-09-23T04:50:09.971Z,9.00
2022-09-23T04:51:09.491Z,8.91
2022-09-23T04:52:07.270Z,9.37
2022-09-23T04:53:05.366Z,9.19
2022-09-23T04:54:02.770Z,9.76
2022-09-23T04:55:00.095Z,10.10
2022-09-23T04:56:03.419Z,9.87
2022-09-23T04:57:00.860Z,9.74
2022-09-23T04:57:58.171Z,9.58
2022-09-23T04:59:01.788Z,9.28
2022-09-23T04:59:59.765Z,9.36
2022-09-23T05:01:04.998Z,9.67
2022-09-23T05:02:02.647Z,9.24
2022-09-23T05:03:00.025Z,9.17
2022-09-23T05:04:02.446Z,10.11
2022-09-23T05:04:59.843Z,9.02
2022-09-23T05:05:59.909Z,9.22
2022-09-23T05:07:02.227Z,9.17
2022-09-23T05:08:00.558Z,8.58
2022-09-23T05:08:59.145Z,8.76
2022-09-23T05:09:56.605Z,9.02
2022-09-23T05:10:58.046Z,9.50
2022-09-23T05:11:55.386Z,10.23
2022-09-23T05:12:57.013Z,10.05
2022-09-23T05:13:55.155Z,10.67
2022-09-23T05:14:52.460Z,9.60
2022-09-23T05:15:49.895Z,9.91
2022-09-23T05:16:47.189Z,9.72
2022-09-23T05:17:44.530Z,8.73
2022-09-23T05:18:43.858Z,9.51
2022-09-23T05:19:41.172Z,9.58
2022-09-23T05:20:38.476Z,9.13
2022-09-23T05:21:37.103Z,9.33
2022-09-23T05:22:35.090Z,9.33
2022-09-23T05:23:33.000Z,8.92
2022-09-23T05:24:30.289Z,8.42
2022-09-23T05:25:27.610Z,9.31
2022-09-23T05:26:26.635Z,8.81
2022-09-23T05:27:24.150Z,19.27
2022-09-23T05:28:21.486Z,11.70
2022-09-23T05:29:18.856Z,10.96
2022-09-23T05:30:16.270Z,9.70
2022-09-23T05:31:20.551Z,101.26
2022-09-23T05:32:18.250Z,133.13
2022-09-23T05:33:15.823Z,102.09
2022-09-23T05:34:13.189Z,34.65
2022-09-23T05:35:10.779Z,20.87
2022-09-23T05:36:08.111Z,14.16
2022-09-23T05:37:05.529Z,15.64
2022-09-23T05:38:02.866Z,19.58
2022-09-23T05:39:00.294Z,15.51
2022-09-23T05:39:57.658Z,18.31
2022-09-23T05:41:05.463Z,14.73
2022-09-23T05:42:03.010Z,12.88
2022-09-23T05:43:00.347Z,20.11
2022-09-23T05:43:57.732Z,30.23
2022-09-23T05:44:56.234Z,20.08
2022-09-23T05:46:05.896Z,17.07
2022-09-23T05:47:05.412Z,35.67
2022-09-23T05:48:02.825Z,23.49
2022-09-23T05:49:11.083Z,44.96
2022-09-23T05:50:08.631Z,22.88
2022-09-23T05:51:10.318Z,9.07
2022-09-23T05:52:07.612Z,8.65
2022-09-23T05:53:04.971Z,10.46
2022-09-23T05:54:05.864Z,9.20
2022-09-23T05:55:03.385Z,8.93
2022-09-23T05:56:01.016Z,9.36
2022-09-23T05:57:00.321Z,11.02
2022-09-23T05:58:00.096Z,29.01
2022-09-23T05:58:58.948Z,43.63
2022-09-23T05:59:56.304Z,46.12
2022-09-23T06:00:55.981Z,15.90
2022-09-23T06:01:56.322Z,16.99
2022-09-23T06:02:54.035Z,18.33
2022-09-23T06:03:55.411Z,15.03
2022-09-23T06:04:52.762Z,49.76
2022-09-23T06:05:53.935Z,41.55
2022-09-23T06:06:51.409Z,27.41
2022-09-23T06:07:48.766Z,14.21
2022-09-23T06:08:47.159Z,9.13
2022-09-23T06:09:44.504Z,8.22
2022-09-23T06:10:47.146Z,8.60
2022-09-23T06:11:46.819Z,10.26
2022-09-23T06:12:45.023Z,10.14
2022-09-23T06:13:42.450Z,11.54
2022-09-23T06:14:39.864Z,10.63
2022-09-23T06:15:37.978Z,8.95
2022-09-23T06:16:35.656Z,24.31
2022-09-23T06:17:33.105Z,20.25
2022-09-23T06:18:30.450Z,9.16
2022-09-23T06:19:27.875Z,8.99
2022-09-23T06:20:25.731Z,9.16
2022-09-23T06:21:23.029Z,9.37
2022-09-23T06:22:20.416Z,8.18
2022-09-23T06:23:17.789Z,9.95
2022-09-23T06:24:18.207Z,10.55
2022-09-23T06:25:19.147Z,21.76
2022-09-23T06:26:17.191Z,16.29
2022-09-23T06:27:14.500Z,18.23
2022-09-23T06:28:12.563Z,70.65
2022-09-23T06:29:14.562Z,28.97
2022-09-23T06:30:12.276Z,13.28
2022-09-23T06:31:16.637Z,10.46
2022-09-23T06:32:14.085Z,10.46
2022-09-23T06:33:11.472Z,10.42
2022-09-23T06:34:13.730Z,9.45
2022-09-23T06:35:22.744Z,12.35
2022-09-23T06:36:37.964Z,14.22
2022-09-23T06:37:39.112Z,18.12
2022-09-23T06:38:39.003Z,22.54
2022-09-23T06:39:36.317Z,19.77
2022-09-23T06:40:33.766Z,17.53
2022-09-23T06:41:31.288Z,20.57
2022-09-23T06:42:28.614Z,22.97
2022-09-23T06:43:26.533Z,14.17
2022-09-23T06:44:23.934Z,10.01
2022-09-23T06:45:21.354Z,8.08
2022-09-23T06:46:19.793Z,8.04
2022-09-23T06:47:17.126Z,7.34
2022-09-23T06:48:14.423Z,7.73
2022-09-23T06:49:12.231Z,7.74
2022-09-23T06:50:09.961Z,7.54
2022-09-23T06:51:07.429Z,8.75
2022-09-23T06:52:05.810Z,10.40
2022-09-23T06:53:03.607Z,8.27
2022-09-23T06:54:00.958Z,8.37
2022-09-23T06:54:58.326Z,8.04
2022-09-23T06:56:04.174Z,7.99
2022-09-23T06:57:01.551Z,9.11
2022-09-23T06:57:58.968Z,9.31
2022-09-23T06:58:56.279Z,9.24
2022-09-23T06:59:53.589Z,9.94
2022-09-23T07:00:50.882Z,10.76
2022-09-23T07:01:48.495Z,8.39
2022-09-23T07:02:46.164Z,9.62
2022-09-23T07:03:45.295Z,8.59
2022-09-23T07:04:42.613Z,8.63
2022-09-23T07:05:39.985Z,8.95
2022-09-23T07:06:37.331Z,8.78
2022-09-23T07:07:36.747Z,8.97
2022-09-23T07:08:35.389Z,9.83
2022-09-23T07:09:32.881Z,8.87
2022-09-23T07:10:31.095Z,11.87
2022-09-23T07:11:28.420Z,10.46
2022-09-23T07:12:25.808Z,11.13
2022-09-23T07:13:23.699Z,10.31
2022-09-23T07:14:21.078Z,11.55
2022-09-23T07:15:18.428Z,12.70
2022-09-23T07:16:15.854Z,11.06
2022-09-23T07:17:13.312Z,10.40
2022-09-23T07:18:11.556Z,10.11
2022-09-23T07:19:08.922Z,9.68
2022-09-23T07:20:06.520Z,8.22
2022-09-23T07:21:08.448Z,8.37
2022-09-23T07:22:05.802Z,8.00
2022-09-23T07:23:03.096Z,8.80
2022-09-23T07:24:00.480Z,8.27
2022-09-23T07:24:57.845Z,8.65
2022-09-23T07:25:58.779Z,8.13
2022-09-23T07:26:56.148Z,7.62
2022-09-23T07:27:56.163Z,8.43
2022-09-23T07:28:57.002Z,8.25
2022-09-23T07:29:55.068Z,8.18
2022-09-23T07:31:00.103Z,8.45
2022-09-23T07:32:09.270Z,9.29
2022-09-23T07:33:24.921Z,8.39
2022-09-23T07:34:27.393Z,7.94
2022-09-23T07:35:26.085Z,7.67
2022-09-23T07:36:24.337Z,9.35
2022-09-23T07:37:21.719Z,8.12
2022-09-23T07:38:19.171Z,8.71
2022-09-23T07:39:16.520Z,8.57
2022-09-23T07:40:13.997Z,8.24
2022-09-23T07:41:13.307Z,8.40
2022-09-23T07:42:12.501Z,10.13
2022-09-23T07:43:09.814Z,10.36
2022-09-23T07:44:07.159Z,8.15
2022-09-23T07:45:06.927Z,8.09
2022-09-23T07:46:08.315Z,8.77
2022-09-23T07:47:05.787Z,9.76
2022-09-23T07:48:03.597Z,11.12
2022-09-23T07:49:02.135Z,8.07
2022-09-23T07:49:59.755Z,7.88
2022-09-23T07:50:58.670Z,8.06
2022-09-23T07:51:56.114Z,8.39
2022-09-23T07:52:53.417Z,16.94
2022-09-23T07:53:55.001Z,35.55
2022-09-23T07:54:53.325Z,15.34
2022-09-23T07:55:57.189Z,13.70
2022-09-23T07:56:54.553Z,18.24
2022-09-23T07:57:52.022Z,33.70
2022-09-23T07:59:00.084Z,18.01
2022-09-23T07:59:58.028Z,19.45
2022-09-23T08:00:55.462Z,10.43
2022-09-23T08:01:54.092Z,57.37
2022-09-23T08:02:53.250Z,14.44
2022-09-23T08:03:51.427Z,9.66
2022-09-23T08:04:48.958Z,9.23
2022-09-23T08:05:46.538Z,8.43
2022-09-23T08:06:45.610Z,12.67
2022-09-23T08:07:42.962Z,9.10
2022-09-23T08:08:43.489Z,7.96
2022-09-23T08:09:42.204Z,8.55
2022-09-23T08:10:39.948Z,8.87
2022-09-23T08:11:41.849Z,8.60
2022-09-23T08:12:39.749Z,9.03
2022-09-23T08:13:37.321Z,9.12
2022-09-23T08:14:38.917Z,7.88
2022-09-23T08:15:36.530Z,7.47
2022-09-23T08:16:34.495Z,7.07
2022-09-23T08:17:31.854Z,33.09
2022-09-23T08:18:29.269Z,25.07
2022-09-23T08:19:26.634Z,16.81
2022-09-23T08:20:45.000Z,8.21
2022-09-23T08:21:47.592Z,7.86
2022-09-23T08:22:50.511Z,6.29
2022-09-23T08:23:48.579Z,10.46
2022-09-23T08:24:45.921Z,19.77
2022-09-23T08:25:47.383Z,10.45
2022-09-23T08:26:45.899Z,21.01
2022-09-23T08:27:43.230Z,17.70
2022-09-23T08:28:41.194Z,17.10
2022-09-23T08:29:38.643Z,32.07
2022-09-23T08:30:36.007Z,29.00
2022-09-23T08:31:33.545Z,14.79
2022-09-23T08:32:31.903Z,5.65
2022-09-23T08:33:29.270Z,5.03
2022-09-23T08:34:27.939Z,5.37
2022-09-23T08:35:25.304Z,6.17
2022-09-23T08:36:22.969Z,8.29
2022-09-23T08:37:20.373Z,7.81
2022-09-23T08:38:18.477Z,9.91
2022-09-23T08:39:17.198Z,9.23
2022-09-23T08:40:15.553Z,5.63
2022-09-23T08:41:18.960Z,8.98
2022-09-23T08:42:27.947Z,9.13
2022-09-23T08:43:27.478Z,17.65
2022-09-23T08:44:43.278Z,15.33
2022-09-23T08:45:42.178Z,9.92
2022-09-23T08:46:46.672Z,18.00
2022-09-23T08:47:50.528Z,12.75
2022-09-23T08:48:49.488Z,17.36
2022-09-23T08:50:03.275Z,21.93
2022-09-23T08:51:11.166Z,6.36
2022-09-23T08:52:16.215Z,14.71
2022-09-23T08:53:28.659Z,12.76
2022-09-23T08:54:30.948Z,28.52
2022-09-23T08:55:47.874Z,16.74
2022-09-23T08:56:49.188Z,20.42
2022-09-23T08:58:02.276Z,7.23
2022-09-23T08:59:18.133Z,5.02
2022-09-23T09:00:21.195Z,4.49
2022-09-23T09:01:35.140Z,4.73
2022-09-23T09:02:35.255Z,5.65
2022-09-23T09:03:38.480Z,4.58
2022-09-23T09:04:35.845Z,4.57
2022-09-23T09:05:33.583Z,4.61
2022-09-23T09:06:52.407Z,11.57
2022-09-23T09:07:53.840Z,12.87
2022-09-23T09:08:55.730Z,6.25
2022-09-23T09:10:11.652Z,5.59
2022-09-23T09:11:12.270Z,5.93
2022-09-23T09:12:12.367Z,5.09
2022-09-23T09:13:20.874Z,5.05
2022-09-23T09:14:24.835Z,20.92
2022-09-23T09:15:29.438Z,10.53
2022-09-23T09:17:02.543Z,8.67
2022-09-23T09:18:04.392Z,5.62
2022-09-23T09:19:03.796Z,8.54
2022-09-23T09:20:21.419Z,17.15
2022-09-23T09:21:25.114Z,8.81
2022-09-23T09:22:28.448Z,12.66
2022-09-23T09:23:28.586Z,7.96
2022-09-23T09:24:33.398Z,7.19
2022-09-23T09:25:34.096Z,14.80
2022-09-23T09:26:35.148Z,15.02
2022-09-23T09:27:33.537Z,6.35
2022-09-23T09:28:39.178Z,6.12
2022-09-23T09:29:40.801Z,4.96
2022-09-23T09:30:39.119Z,6.60
2022-09-23T09:31:47.604Z,6.82
2022-09-23T09:32:48.912Z,5.31
2022-09-23T09:34:06.504Z,5.73
2022-09-23T09:35:11.756Z,6.19
2022-09-23T09:36:18.725Z,3.87
2022-09-23T09:37:16.055Z,4.65
2022-09-23T09:38:13.452Z,9.00
2022-09-23T09:39:16.637Z,7.22
2022-09-23T09:40:17.158Z,5.25
2022-09-23T09:41:17.986Z,4.86
2022-09-23T09:42:26.058Z,4.52
2022-09-23T09:43:23.725Z,4.40
2022-09-23T09:44:43.029Z,5.09
2022-09-23T09:46:15.722Z,4.63
2022-09-23T09:47:28.415Z,11.88
2022-09-23T09:48:34.421Z,90.35
2022-09-23T09:49:41.305Z,47.46
2022-09-23T09:50:43.747Z,91.56
2022-09-23T09:51:42.494Z,8.13
2022-09-23T09:52:42.726Z,32.93
2022-09-23T09:53:40.050Z,13.40
2022-09-23T09:54:38.746Z,34.18
2022-09-23T09:55:37.386Z,26.62
2022-09-23T09:56:36.375Z,8.25
2022-09-23T09:57:39.090Z,25.03
2022-09-23T09:58:48.756Z,9.55
2022-09-23T09:59:46.131Z,4.56
2022-09-23T10:00:45.721Z,9.39
2022-09-23T10:01:43.285Z,12.38
2022-09-23T10:02:40.887Z,22.14
2022-09-23T10:03:41.410Z,9.35
2022-09-23T10:04:39.431Z,6.30
2022-09-23T10:05:42.740Z,28.18
2022-09-23T10:06:40.066Z,14.56
2022-09-23T10:07:37.464Z,19.07
2022-09-23T10:08:36.233Z,8.27
2022-09-23T10:09:36.187Z,7.50
2022-09-23T10:10:33.954Z,9.90
2022-09-23T10:11:32.171Z,14.74
2022-09-23T10:12:43.509Z,5.39
2022-09-23T10:13:42.161Z,7.83
2022-09-23T10:14:39.541Z,12.55
2022-09-23T10:15:45.224Z,13.69
2022-09-23T10:16:43.942Z,8.56
2022-09-23T10:17:41.975Z,7.12
2022-09-23T10:18:49.595Z,8.85
2022-09-23T10:20:00.313Z,8.53
2022-09-23T10:21:17.979Z,7.20
2022-09-23T10:22:18.696Z,8.14
2022-09-23T10:23:21.187Z,6.49
2022-09-23T10:24:23.459Z,9.69
2022-09-23T10:25:24.631Z,7.18
2022-09-23T10:26:32.300Z,19.43
2022-09-23T10:27:31.660Z,30.79
2022-09-23T10:28:50.327Z,6.03
2022-09-23T10:29:47.644Z,9.78
2022-09-23T10:31:03.595Z,14.53
2022-09-23T10:32:20.558Z,13.60
2022-09-23T10:33:27.910Z,11.73
2022-09-23T10:34:28.524Z,12.08
2022-09-23T10:35:26.592Z,13.62
2022-09-23T10:36:24.444Z,9.36
2022-09-23T10:37:32.713Z,12.05
2022-09-23T10:38:30.162Z,9.40
2022-09-23T10:39:46.012Z,3.77
2022-09-23T10:41:02.946Z,3.87
2022-09-23T10:42:18.894Z,15.83
2022-09-23T10:43:53.143Z,12.08
2022-09-23T10:45:38.602Z,4.92
2022-09-23T10:46:59.137Z,3.45
2022-09-23T10:47:56.532Z,3.26
2022-09-23T10:49:12.365Z,3.12
2022-09-23T10:50:12.599Z,4.57
2022-09-23T10:51:25.469Z,3.51
2022-09-23T10:52:27.447Z,3.80
2022-09-23T10:53:43.372Z,3.43
2022-09-23T10:54:49.638Z,3.34
2022-09-23T10:56:07.186Z,4.65
2022-09-23T10:57:27.177Z,7.74
2022-09-23T10:58:43.156Z,7.13
2022-09-23T11:00:00.974Z,4.79
2022-09-23T11:01:04.377Z,3.93
2022-09-23T11:02:16.150Z,3.49
2022-09-23T11:03:25.444Z,3.81
2022-09-23T11:04:41.432Z,3.92
2022-09-23T11:05:51.818Z,4.03
2022-09-23T11:07:07.665Z,4.22
2022-09-23T11:08:05.173Z,4.09
2022-09-23T11:09:25.638Z,3.99
2022-09-23T11:10:47.398Z,4.07
2022-09-23T11:11:50.672Z,6.46
2022-09-23T11:13:03.125Z,9.88
2022-09-23T11:14:18.924Z,19.45
2022-09-23T11:15:16.825Z,8.41
2022-09-23T11:16:14.173Z,8.68
2022-09-23T11:17:20.682Z,7.25
2022-09-23T11:18:20.843Z,5.38
2022-09-23T11:19:32.445Z,4.79
2022-09-23T11:20:38.741Z,4.03
2022-09-23T11:21:47.882Z,3.42
2022-09-23T11:22:53.783Z,3.78
2022-09-23T11:24:01.502Z,3.73
2022-09-23T11:25:17.414Z,3.66
2022-09-23T11:26:20.701Z,3.72
2022-09-23T11:27:36.530Z,3.59
2022-09-23T11:28:45.901Z,3.78
2022-09-23T11:29:52.146Z,3.91
2022-09-23T11:31:10.209Z,3.88
2022-09-23T11:32:10.416Z,8.90
2022-09-23T11:33:24.545Z,15.76
2022-09-23T11:34:27.799Z,10.85
2022-09-23T11:35:29.942Z,6.53
2022-09-23T11:36:33.273Z,5.26
2022-09-23T11:37:36.496Z,4.49
2022-09-23T11:38:46.449Z,4.87
2022-09-23T11:39:43.807Z,5.32
2022-09-23T11:40:46.544Z,5.13
2022-09-23T11:41:45.102Z,4.54
2022-09-23T11:42:51.024Z,4.74
2022-09-23T11:43:52.436Z,5.29
2022-09-23T11:44:54.869Z,4.30
2022-09-23T11:46:10.366Z,6.38
2022-09-23T11:47:26.495Z,5.11
2022-09-23T11:48:45.223Z,7.16
2022-09-23T11:50:12.806Z,5.13
2022-09-23T11:51:16.311Z,5.89
2022-09-23T11:52:20.661Z,7.36
2022-09-23T11:53:20.469Z,13.17
2022-09-23T11:54:22.871Z,6.32
2022-09-23T11:55:22.930Z,6.72
2022-09-23T11:56:32.638Z,6.87
2022-09-23T11:57:48.990Z,3.80
2022-09-23T11:58:59.737Z,4.02
2022-09-23T12:00:02.836Z,4.49
2022-09-23T12:01:08.356Z,5.78
2022-09-23T12:02:20.735Z,5.98
2022-09-23T12:03:19.392Z,4.17
2022-09-23T12:04:36.883Z,4.23
2022-09-23T12:05:51.732Z,3.58
2022-09-23T12:07:01.106Z,3.69
2022-09-23T12:08:04.979Z,4.06
2022-09-23T12:09:10.989Z,4.69
2022-09-23T12:10:10.428Z,4.58
2022-09-23T12:11:13.647Z,4.63
2022-09-23T12:12:16.892Z,4.97
2022-09-23T12:13:21.008Z,4.01
2022-09-23T12:14:47.402Z,3.45
2022-09-23T12:16:04.928Z,2.79
2022-09-23T12:17:08.331Z,3.28
2022-09-23T12:18:24.635Z,3.21
2022-09-23T12:19:40.655Z,2.67
2022-09-23T12:20:52.997Z,2.29
2022-09-23T12:22:13.490Z,2.76
2022-09-23T12:23:13.878Z,3.05
2022-09-23T12:24:27.172Z,3.69
2022-09-23T12:25:39.805Z,2.36
2022-09-23T12:26:39.157Z,2.22
2022-09-23T12:27:36.953Z,2.69
2022-09-23T12:28:41.084Z,2.51
2022-09-23T12:29:40.387Z,2.39
2022-09-23T12:30:39.434Z,2.28
2022-09-23T12:31:41.198Z,2.25
2022-09-23T12:32:42.486Z,2.22
2022-09-23T12:33:41.057Z,2.25
2022-09-23T12:34:47.937Z,2.49
2022-09-23T12:35:45.967Z,2.85
2022-09-23T12:36:43.963Z,3.17
2022-09-23T12:37:41.914Z,3.51
2022-09-23T12:38:55.643Z,3.19
2022-09-23T12:39:54.224Z,3.49
2022-09-23T12:40:53.186Z,3.16
2022-09-23T12:41:58.462Z,3.41
2022-09-23T12:42:56.258Z,3.36
2022-09-23T12:43:56.135Z,3.66
2022-09-23T12:45:14.123Z,3.89
2022-09-23T12:46:28.439Z,3.83
2022-09-23T12:47:29.499Z,3.56
2022-09-23T12:48:43.118Z,3.43
2022-09-23T12:49:42.039Z,3.52
2022-09-23T12:51:02.118Z,3.67
2022-09-23T12:52:11.645Z,3.60
2022-09-23T12:53:27.371Z,3.31
2022-09-23T12:54:25.012Z,3.57
2022-09-23T12:55:23.301Z,3.53
2022-09-23T12:56:46.830Z,3.47
2022-09-23T12:57:44.433Z,3.32
2022-09-23T12:58:41.893Z,3.80
2022-09-23T12:59:51.208Z,4.65
2022-09-23T13:01:06.464Z,4.58
2022-09-23T13:02:23.560Z,6.19
2022-09-23T13:03:40.502Z,5.48
2022-09-23T13:05:11.900Z,5.78
2022-09-23T13:06:29.622Z,5.00
2022-09-23T13:07:30.986Z,5.56
2022-09-23T13:08:29.048Z,4.69
2022-09-23T13:09:29.220Z,3.46
2022-09-23T13:10:32.803Z,3.92
2022-09-23T13:11:31.822Z,6.34
2022-09-23T13:12:33.063Z,6.23
2022-09-23T13:13:39.839Z,5.79
2022-09-23T13:14:39.997Z,5.36
2022-09-23T13:15:37.565Z,8.38
2022-09-23T13:16:39.593Z,4.79
2022-09-23T13:17:38.354Z,4.84
2022-09-23T13:18:54.572Z,3.78
2022-09-23T13:19:59.768Z,4.01
2022-09-23T13:20:57.148Z,3.64
2022-09-23T13:21:54.474Z,3.59
2022-09-23T13:22:54.511Z,3.58
2022-09-23T13:24:10.604Z,3.17
2022-09-23T13:25:19.157Z,3.21
2022-09-23T13:26:16.633Z,3.22
2022-09-23T13:27:27.430Z,3.31
2022-09-23T13:28:38.198Z,2.98
2022-09-23T13:29:45.016Z,3.09
2022-09-23T13:30:48.167Z,2.94
2022-09-23T13:31:46.943Z,3.47
2022-09-23T13:32:48.443Z,3.31
2022-09-23T13:33:48.186Z,3.18
2022-09-23T13:35:05.925Z,2.62
2022-09-23T13:36:04.365Z,3.13
2022-09-23T13:37:22.912Z,2.99
2022-09-23T13:38:29.825Z,3.29
2022-09-23T13:39:28.659Z,3.04
2022-09-23T13:40:29.202Z,2.77
2022-09-23T13:41:28.628Z,2.85
2022-09-23T13:42:29.761Z,3.00
2022-09-23T13:43:48.712Z,2.84
2022-09-23T13:44:46.319Z,2.65
2022-09-23T13:45:44.161Z,3.90